Stations météo

Publicité
Uccle, Belgique (6447): Température de l'air & dewpoint: 05.12.2019 11:00:00 - 11.12.2019 11:00:00 (CET)Uccle, Belgique (6447): Vitesse du vent & gusts: 05.12.2019 11:00:00 - 11.12.2019 11:00:00 (CET)Uccle, Belgique (6447): Direction du vent: 05.12.2019 11:00:00 - 11.12.2019 11:00:00 (CET)Uccle, Belgique (6447): reduced air pressure: 05.12.2019 11:00:00 - 11.12.2019 11:00:00 (CET)Uccle, Belgique (6447): Ensoleillement: 05.12.2019 11:00:00 - 11.12.2019 11:00:00 (CET)Uccle, Belgique (6447): Quantités de précipitations: 05.12.2019 11:00:00 - 11.12.2019 11:00:00 (CET)
Date & Time tt [°C] td [°C] ff [km/h] ff [knt] fx [km/h] fx [knt] dd ppp [hPa] sd [min] rr [mm]
11.12.2019 11:00:00 5,0 4,3 7 4 22 12 S 1008,7 0 0,0
11.12.2019 10:00:00 4,8 4,1 12 7 23 12 S 1008,8 0 0,0
11.12.2019 09:00:00 4,7 4,0 15 8 27 14 S 1008,9 0 0,1
11.12.2019 08:00:00 4,9 4,2 13 7 31 17 S 1009,4 0 0,5
11.12.2019 07:00:00 5,1 4,4 14 8 29 16 S 1009,7 0 0,8
11.12.2019 06:00:00 5,4 4,5 14 8 34 18 SSW 1010,0 0 1,1
11.12.2019 05:00:00 5,5 4,5 15 8 36 19 SSW 1010,3 0 1,2
11.12.2019 04:00:00 5,9 4,1 20 11 47 26 SSW 1010,5 0 0,0
11.12.2019 03:00:00 6,1 3,9 27 14 46 25 SSW 1010,8 0 0,0
11.12.2019 02:00:00 6,2 3,6 24 13 61 33 S 1011,1 0 0,0
11.12.2019 01:00:00 6,9 3,1 25 14 63 34 S 1011,4 0 0,0
11.12.2019 00:00:00 7,2 2,8 29 16 70 38 SSW 1012,2 0 0,0
10.12.2019 23:00:00 7,1 2,5 31 17 61 33 S 1012,1 0 0,0
10.12.2019 22:00:00 7,0 2,1 30 16 68 37 S 1013,0 0 0,0
10.12.2019 21:00:00 6,2 1,6 27 15 59 32 S 1014,1 0 0,0
10.12.2019 20:00:00 5,8 1,3 29 16 58 31 S 1014,7 0 0,0
10.12.2019 19:00:00 5,8 1,1 32 18 56 30 S 1016,0 0 0,0
10.12.2019 18:00:00 5,5 1,0 30 16 53 28 S 1017,0 0 0,0
10.12.2019 17:00:00 5,5 1,0 26 14 53 29 S 1018,1 0 0,0
10.12.2019 16:00:00 5,7 0,8 26 14 48 26 S 1019,3 0 0,0
10.12.2019 15:00:00 5,5 0,7 22 12 53 29 S 1020,6 24 0,0
10.12.2019 14:00:00 6,2 0,5 24 13 51 28 S 1022,0 53 0,0
10.12.2019 13:00:00 6,1 0,4 22 12 45 25 S 1023,5 60 0,0
10.12.2019 12:00:00 5,2 0,0 23 13 45 24 S 1024,2 60 0,0
10.12.2019 11:00:00 3,8 0,7 17 9 33 18 SSW 1025,3 55 0,0
10.12.2019 10:00:00 2,2 0,4 16 9 25 14 S 1025,3 48 0,0
10.12.2019 09:00:00 0,8 -0,3 13 7 21 11 S 1025,9 0 0,0
10.12.2019 08:00:00 1,1 0,0 10 5 18 10 SSW 1025,8 0 0,0
10.12.2019 07:00:00 0,9 0,1 7 4 13 7 SSW 1025,8 0 0,0
10.12.2019 06:00:00 1,4 0,5 7 4 16 9 SSW 1025,5 0 0,0
10.12.2019 05:00:00 2,1 1,0 8 4 11 6 SW 1025,5 0 0,0
10.12.2019 04:00:00 3,2 2,0 6 3 12 6 WSW 1025,3 0 0,0
10.12.2019 03:00:00 4,1 2,8 4 2 24 13 NW 1025,1 0 0,0
10.12.2019 02:00:00 3,9 2,5 13 7 25 14 W 1024,1 0 0,0
10.12.2019 01:00:00 4,4 2,5 11 6 22 12 W 1023,5 0 0,0
10.12.2019 00:00:00 4,5 2,8 8 4 25 14 W 1023,0 0 0,0
09.12.2019 23:00:00 4,6 2,5 9 5 31 17 WNW 1021,8 0 0,0
09.12.2019 22:00:00 5,2 2,6 14 7 34 18 WNW 1020,6 0 0,0
09.12.2019 21:00:00 5,5 2,7 14 8 31 17 WNW 1019,0 0 0,0
09.12.2019 20:00:00 5,7 2,8 20 11 36 19 NW 1017,3 0 0,4
09.12.2019 19:00:00 5,9 3,5 22 12 55 30 NNW 1015,5 0 0,4
09.12.2019 18:00:00 6,7 3,7 32 18 66 35 NNW 1013,4 0 0,1
09.12.2019 17:00:00 6,2 4,1 20 11 46 25 NNW 1010,6 0 0,5
09.12.2019 16:00:00 6,4 4,9 29 16 70 38 NW 1007,4 0 1,8
09.12.2019 15:00:00 6,6 4,6 26 14 56 31 WNW 1004,5 0 0,5
09.12.2019 14:00:00 6,9 4,8 25 14 55 30 WNW 1003,3 0 0,3
09.12.2019 13:00:00 7,2 5,2 25 14 62 33 WNW 1002,3 0 0,8
09.12.2019 12:00:00 7,5 5,5 19 10 37 20 W 1000,9 1 0,0
09.12.2019 11:00:00 7,0 5,3 15 8 39 21 WSW 999,9 0 0,0
09.12.2019 10:00:00 6,5 4,7 11 6 37 20 WSW 998,2 0 0,0
09.12.2019 09:00:00 6,7 4,5 22 12 50 27 SW 996,8 0 0,0
09.12.2019 08:00:00 6,5 4,8 27 15 57 31 SW 995,5 0 0,2
09.12.2019 07:00:00 6,6 4,9 29 16 61 33 SW 994,6 0 0,4
09.12.2019 06:00:00 6,6 4,4 38 21 72 39 SSW 993,7 0 0,3
09.12.2019 05:00:00 6,4 4,1 33 18 68 37 SSW 994,2 0 0,4
09.12.2019 04:00:00 6,8 3,4 27 15 59 32 SSW 995,6 0 0,0
09.12.2019 03:00:00 7,2 3,4 32 17 64 34 SSW 996,9 0 0,0
09.12.2019 02:00:00 6,9 3,8 32 17 57 31 SSW 997,9 0 0,0
09.12.2019 01:00:00 7,0 3,9 29 16 54 29 SSW 998,7 0 0,1
09.12.2019 00:00:00 7,1 4,1 28 15 55 30 SSW 999,5 0 0,0
08.12.2019 23:00:00 6,6 3,5 26 14 49 26 SSW 999,9 0 0,0
08.12.2019 22:00:00 7,0 3,9 24 13 46 25 SW 1000,3 0 0,0
08.12.2019 21:00:00 7,5 4,3 22 12 50 27 WSW 1000,6 0 0,0
08.12.2019 20:00:00 7,2 5,3 13 7 54 29 SW 1000,8 0 0,4
08.12.2019 19:00:00 8,6 5,5 22 12 56 30 SW 1000,8 0 0,1
08.12.2019 18:00:00 9,2 5,7 26 14 51 28 SW 1001,2 0 0,0
08.12.2019 17:00:00 9,2 5,2 24 13 42 23 SW 1001,7 5 0,0
08.12.2019 16:00:00 9,8 5,0 20 11 51 27 WSW 1002,1 28 0,0
08.12.2019 15:00:00 10,6 6,2 20 11 55 30 WSW 1002,5 24 0,0
08.12.2019 14:00:00 10,8 7,0 24 13 55 30 WSW 1002,7 20 0,0
08.12.2019 13:00:00 10,4 8,4 22 12 54 29 WSW 1003,0 0 0,0
08.12.2019 12:00:00 10,0 9,1 21 12 55 30 WSW 1003,1 0 0,3
08.12.2019 11:00:00 9,8 8,9 29 16 65 35 SW 1003,0 0 0,2
08.12.2019 10:00:00 9,5 8,4 34 18 72 39 SSW 1003,2 0 0,2
08.12.2019 09:00:00 8,9 7,8 31 17 57 31 SSW 1003,6 0 0,8
08.12.2019 08:00:00 8,8 7,5 25 14 59 32 SSW 1004,3 0 2,1
08.12.2019 07:00:00 9,9 7,2 29 16 56 30 SSW 1005,3 0 0,0
08.12.2019 06:00:00 9,8 6,7 33 18 57 31 SSW 1005,6 0 0,0
08.12.2019 05:00:00 9,6 6,6 26 14 52 28 SSW 1006,6 0 0,0
08.12.2019 04:00:00 9,3 6,5 29 15 52 28 SSW 1008,1 0 0,0
08.12.2019 03:00:00 9,1 6,1 28 15 49 27 SSW 1009,3 0 0,0
08.12.2019 02:00:00 8,9 5,9 22 12 48 26 SSW 1010,4 0 0,0
08.12.2019 01:00:00 9,0 5,4 18 10 42 23 SSW 1011,6 0 0,0
08.12.2019 00:00:00 9,0 5,4 21 12 38 21 SSW 1012,6 0 0,0
07.12.2019 23:00:00 9,2 5,5 19 10 37 20 SSW 1013,4 0 0,0
07.12.2019 22:00:00 9,1 5,6 21 11 36 20 SSW 1014,2 0 0,0
07.12.2019 21:00:00 9,1 6,0 21 11 40 22 SSW 1014,8 0 0,0
07.12.2019 20:00:00 8,9 6,4 19 10 35 19 SW 1015,2 0 0,0
07.12.2019 19:00:00 8,6 6,5 14 8 31 17 SSW 1015,2 0 0,0
07.12.2019 18:00:00 8,5 6,1 16 9 32 17 SW 1015,2 0 0,0
07.12.2019 17:00:00 8,9 6,0 14 8 30 16 SW 1015,1 0 0,0
07.12.2019 16:00:00 9,0 6,0 15 8 29 15 SW 1014,9 0 0,0
07.12.2019 15:00:00 9,1 6,1 13 7 30 16 SW 1014,8 0 0,0
07.12.2019 14:00:00 9,2 6,6 11 6 27 15 SW 1014,8 0 0,0
07.12.2019 13:00:00 9,1 6,8 11 6 29 15 SW 1014,7 0 0,0
07.12.2019 12:00:00 8,5 5,9 11 6 25 13 SW 1014,8 0 0,0
07.12.2019 11:00:00 8,3 5,8 12 7 24 13 WSW 1014,5 0 0,0
07.12.2019 10:00:00 8,0 5,9 11 6 27 14 WSW 1014,3 0 0,0
07.12.2019 09:00:00 7,9 6,1 9 5 22 12 WSW 1013,8 0 0,0
07.12.2019 08:00:00 8,2 6,3 11 6 27 15 SW 1012,9 0 0,0
07.12.2019 07:00:00 8,2 6,5 14 8 27 15 WSW 1012,6 0 0,0
07.12.2019 06:00:00 8,4 6,6 8 5 29 15 WSW 1011,8 0 0,0
07.12.2019 05:00:00 8,6 6,8 13 7 31 17 WSW 1011,2 0 0,0
07.12.2019 04:00:00 8,6 6,9 10 5 29 15 SW 1010,5 0 0,0
07.12.2019 03:00:00 8,7 7,1 12 6 29 16 WSW 1009,7 0 0,0
07.12.2019 02:00:00 8,7 7,4 13 7 36 19 WSW 1008,9 0 0,0
07.12.2019 01:00:00 8,8 7,7 14 8 35 19 WSW 1008,3 0 0,0
07.12.2019 00:00:00 8,6 7,8 16 9 40 21 WSW 1007,5 0 0,0
06.12.2019 23:00:00 8,4 7,6 19 10 55 30 SW 1006,6 0 0,4
06.12.2019 22:00:00 8,2 7,4 27 14 54 29 SW 1006,1 0 1,1
06.12.2019 21:00:00 7,8 6,8 27 14 57 31 SW 1006,0 0 0,1
06.12.2019 20:00:00 7,0 6,1 32 17 63 34 SSW 1006,3 0 0,1
06.12.2019 19:00:00 6,6 5,6 29 16 55 30 SSW 1006,3 0 0,0
06.12.2019 18:00:00 6,1 5,2 23 13 48 26 SSW 1006,7 0 0,0
06.12.2019 17:00:00 5,8 5,0 27 15 58 31 SSW 1007,1 0 0,4
06.12.2019 16:00:00 5,4 4,7 22 12 54 29 SSW 1007,6 0 0,5
06.12.2019 15:00:00 5,3 4,5 23 12 48 26 SSW 1008,4 0 0,6
06.12.2019 14:00:00 4,9 4,2 27 15 46 25 SSW 1009,4 0 0,9
06.12.2019 13:00:00 4,6 3,9 22 12 53 28 SSW 1010,7 0 0,3
06.12.2019 12:00:00 4,2 3,5 19 11 42 23 SSW 1011,6 0 1,3
06.12.2019 11:00:00 3,8 3,1 24 13 51 27 SSW 1012,5 0 0,6
06.12.2019 10:00:00 3,1 2,4 24 13 46 25 SSW 1012,8 0 1,1
06.12.2019 09:00:00 2,9 1,8 23 12 44 24 SSW 1013,3 0 0,8
06.12.2019 08:00:00 3,2 1,6 22 12 40 22 SSW 1013,8 0 0,4
06.12.2019 07:00:00 3,4 1,3 22 12 46 25 SSW 1013,8 0 0,0
06.12.2019 06:00:00 2,8 1,0 23 13 49 26 SSW 1014,3 0 0,0
06.12.2019 05:00:00 2,2 0,7 21 12 41 22 SSW 1014,6 0 0,0
06.12.2019 04:00:00 1,7 0,4 19 10 37 20 SSW 1015,4 0 0,0
06.12.2019 03:00:00 1,7 0,5 21 12 40 22 SSW 1016,0 0 0,0
06.12.2019 02:00:00 1,4 0,3 19 10 40 22 SSW 1016,6 0 0,0
06.12.2019 01:00:00 1,2 0,1 22 12 38 21 SSW 1017,5 0 0,0
06.12.2019 00:00:00 1,2 0,0 19 10 36 19 SSW 1018,3 0 0,0
05.12.2019 23:00:00 0,9 -0,4 17 9 36 19 SSW 1018,6 0 0,0
05.12.2019 22:00:00 1,3 0,1 19 10 31 17 SSW 1018,9 0 0,0
05.12.2019 21:00:00 1,0 0,0 10 6 24 13 SSW 1019,2 0 0,0
05.12.2019 20:00:00 1,2 0,2 13 7 26 14 S 1019,6 0 0,0
05.12.2019 19:00:00 1,4 0,8 14 8 29 16 SSW 1020,2 0 0,0
05.12.2019 18:00:00 1,5 0,8 15 8 34 18 SSW 1020,5 0 0,0
05.12.2019 17:00:00 2,1 1,0 16 9 29 16 SSW 1020,9 0 0,0
05.12.2019 16:00:00 2,6 1,3 15 8 25 13 SSW 1021,0 0 0,0
05.12.2019 15:00:00 2,2 1,0 14 8 24 13 SSW 1021,3 0 0,0
05.12.2019 14:00:00 2,3 1,4 14 8 22 12 SW 1021,3 0 0,0
05.12.2019 13:00:00 2,2 1,6 7 4 14 8 WSW 1021,5 0 0,0
05.12.2019 12:00:00 1,2 0,8 6 3 11 6 S 1021,5 0 0,0
05.12.2019 11:00:00 0,2 -0,2 7 4 12 6 S 1022,3 0 0,1

tt = Température de l'air
td = dewpoint
ff = Vitesse du vent
fx = gusts
dd = Direction du vent
ppp = reduced air pressure
sd = Ensoleillement
rr = Quantités de précipitations

stations d'obs. à proximité